createdAt,value
2022-09-13T00:01:32.777Z,98195.47
2022-09-13T00:04:04.352Z,98190.69
2022-09-13T00:06:33.517Z,98184.94
2022-09-13T00:09:02.756Z,98186.66
2022-09-13T00:11:32.905Z,98179.31
2022-09-13T00:14:02.022Z,98175.47
2022-09-13T00:16:32.004Z,98184.88
2022-09-13T00:19:02.734Z,98174.53
2022-09-13T00:21:32.038Z,98173.94
2022-09-13T00:24:01.110Z,98181.44
2022-09-13T00:26:31.355Z,98180.75
2022-09-13T00:29:01.146Z,98183.28
2022-09-13T00:31:30.672Z,98180.31
2022-09-13T00:34:00.808Z,98181.59
2022-09-13T00:36:32.343Z,98177.66
2022-09-13T00:39:01.726Z,98171.94
2022-09-13T00:41:30.841Z,98175.31
2022-09-13T00:44:02.708Z,98171.13
2022-09-13T00:46:38.740Z,98162.41
2022-09-13T00:49:16.236Z,98162.41
2022-09-13T00:51:51.488Z,98164.94
2022-09-13T00:54:23.930Z,98165.19
2022-09-13T00:56:57.421Z,98159.94
2022-09-13T00:59:34.113Z,98151.00
2022-09-13T01:02:04.617Z,98164.19
2022-09-13T01:04:36.819Z,98158.66
2022-09-13T01:07:10.963Z,98155.38
2022-09-13T01:09:45.565Z,98156.31
2022-09-13T01:12:26.541Z,98148.50
2022-09-13T01:15:00.717Z,98146.13
2022-09-13T01:17:31.354Z,98142.84
2022-09-13T01:20:01.746Z,98149.38
2022-09-13T01:23:23.699Z,98141.09
2022-09-13T01:26:52.763Z,98138.06
2022-09-13T01:29:51.501Z,98132.34
2022-09-13T01:32:26.924Z,98134.03
2022-09-13T01:35:05.634Z,98123.53
2022-09-13T01:37:52.155Z,98117.91
2022-09-13T01:40:44.253Z,98123.53
2022-09-13T01:43:32.552Z,98115.56
2022-09-13T01:46:07.598Z,98115.97
2022-09-13T01:48:56.525Z,98111.00
2022-09-13T01:51:34.556Z,98109.25
2022-09-13T01:54:16.718Z,98109.25
2022-09-13T01:56:57.189Z,98110.03
2022-09-13T01:59:40.082Z,98109.25
2022-09-13T02:02:18.281Z,98104.41
2022-09-13T02:04:54.917Z,98105.81
2022-09-13T02:07:30.493Z,98103.56
2022-09-13T02:10:08.549Z,98095.22
2022-09-13T02:12:42.078Z,98092.78
2022-09-13T02:15:17.697Z,98094.38
2022-09-13T02:17:53.367Z,98092.94
2022-09-13T02:20:30.167Z,98088.97
2022-09-13T02:23:03.573Z,98088.00
2022-09-13T02:25:37.312Z,98086.53
2022-09-13T02:28:10.992Z,98081.72
2022-09-13T02:30:45.879Z,98088.22
2022-09-13T02:33:19.636Z,98080.19
2022-09-13T02:35:54.881Z,98071.78
2022-09-13T02:38:30.593Z,98071.81
2022-09-13T02:41:07.081Z,98067.47
2022-09-13T02:43:41.923Z,98074.88
2022-09-13T02:46:31.224Z,98076.09
2022-09-13T02:49:13.245Z,98080.78
2022-09-13T02:51:53.633Z,98080.56
2022-09-13T02:54:31.798Z,98080.59
2022-09-13T02:57:07.593Z,98069.72
2022-09-13T02:59:36.847Z,98063.47
2022-09-13T03:02:09.958Z,98066.75
2022-09-13T03:04:41.164Z,98065.25
2022-09-13T03:07:14.663Z,98068.28
2022-09-13T03:09:50.350Z,98060.28
2022-09-13T03:12:50.862Z,98047.63
2022-09-13T03:15:33.197Z,98057.00
2022-09-13T03:18:18.358Z,98053.06
2022-09-13T03:21:02.369Z,98046.13
2022-09-13T03:23:55.955Z,98050.66
2022-09-13T03:26:36.712Z,98051.44
2022-09-13T03:29:29.286Z,98052.38
2022-09-13T03:32:11.118Z,98050.72
2022-09-13T03:34:50.440Z,98049.53
2022-09-13T03:37:32.691Z,98056.81
2022-09-13T03:40:10.823Z,98054.84
2022-09-13T03:42:46.915Z,98052.03
2022-09-13T03:45:19.038Z,98059.97
2022-09-13T03:47:53.349Z,98048.56
2022-09-13T03:50:25.258Z,98049.00
2022-09-13T03:52:59.873Z,98058.78
2022-09-13T03:55:31.415Z,98059.66
2022-09-13T03:58:01.274Z,98055.91
2022-09-13T04:00:30.794Z,98060.00
2022-09-13T04:02:59.818Z,98056.06
2022-09-13T04:05:28.909Z,98057.66
2022-09-13T04:07:57.977Z,98056.00
2022-09-13T04:10:27.245Z,98053.94
2022-09-13T04:12:57.908Z,98057.19
2022-09-13T04:15:32.385Z,98058.81
2022-09-13T04:18:02.294Z,98056.44
2022-09-13T04:20:32.661Z,98059.34
2022-09-13T04:23:08.795Z,98049.78
2022-09-13T04:25:41.678Z,98059.00
2022-09-13T04:28:12.307Z,98046.59
2022-09-13T04:30:45.947Z,98050.91
2022-09-13T04:33:19.677Z,98051.91
2022-09-13T04:35:49.191Z,98056.81
2022-09-13T04:38:18.298Z,98051.09
2022-09-13T04:40:54.895Z,98047.22
2022-09-13T04:43:25.748Z,98055.69
2022-09-13T04:45:54.911Z,98053.31
2022-09-13T04:48:24.006Z,98052.81
2022-09-13T04:50:53.351Z,98064.03
2022-09-13T04:53:22.501Z,98059.06
2022-09-13T04:55:51.620Z,98049.78
2022-09-13T04:58:22.257Z,98042.34
2022-09-13T05:00:56.924Z,98051.06
2022-09-13T05:03:26.086Z,98052.59
2022-09-13T05:05:56.228Z,98054.47
2022-09-13T05:08:25.268Z,98066.75
2022-09-13T05:10:54.345Z,98065.25
2022-09-13T05:13:23.453Z,98069.91
2022-09-13T05:15:57.633Z,98074.03
2022-09-13T05:18:27.945Z,98070.56
2022-09-13T05:20:57.962Z,98074.47
2022-09-13T05:23:29.291Z,98069.59
2022-09-13T05:26:00.213Z,98072.53
2022-09-13T05:28:31.403Z,98075.16
2022-09-13T05:31:08.230Z,98071.38
2022-09-13T05:33:39.640Z,98069.50
2022-09-13T05:36:09.081Z,98058.56
2022-09-13T05:38:38.266Z,98062.06
2022-09-13T05:41:08.016Z,98077.41
2022-09-13T05:43:38.392Z,98068.78
2022-09-13T05:46:12.435Z,98055.19
2022-09-13T05:48:42.528Z,98064.22
2022-09-13T05:51:14.350Z,98063.16
2022-09-13T05:53:45.921Z,98057.44
2022-09-13T05:56:17.382Z,98059.63
2022-09-13T05:58:48.492Z,98068.16
2022-09-13T06:01:22.174Z,98060.44
2022-09-13T06:03:52.892Z,98058.28
2022-09-13T06:06:24.007Z,98067.59
2022-09-13T06:08:54.799Z,98062.69
2022-09-13T06:11:24.647Z,98058.47
2022-09-13T06:13:54.371Z,98055.34
2022-09-13T06:16:24.945Z,98057.81
2022-09-13T06:18:54.070Z,98046.72
2022-09-13T06:21:28.413Z,98042.41
2022-09-13T06:23:58.330Z,98039.50
2022-09-13T06:26:29.381Z,98039.66
2022-09-13T06:29:03.625Z,98040.53
2022-09-13T06:31:34.215Z,98036.81
2022-09-13T06:34:03.789Z,98048.63
2022-09-13T06:36:41.590Z,98037.84
2022-09-13T06:39:11.095Z,98039.75
2022-09-13T06:41:40.468Z,98044.06
2022-09-13T06:44:10.590Z,98040.38
2022-09-13T06:46:41.483Z,98044.84
2022-09-13T06:49:11.844Z,98046.34
2022-09-13T06:51:40.918Z,98054.06
2022-09-13T06:54:10.022Z,98065.38
2022-09-13T06:56:40.206Z,98068.56
2022-09-13T06:59:11.667Z,98064.66
2022-09-13T07:01:44.843Z,98052.28
2022-09-13T07:04:16.909Z,98042.66
2022-09-13T07:06:48.378Z,98024.22
2022-09-13T07:09:21.312Z,98031.06
2022-09-13T07:11:52.556Z,98029.09
2022-09-13T07:14:24.770Z,98042.06
2022-09-13T07:16:56.079Z,98052.78
2022-09-13T07:19:27.721Z,98034.00
2022-09-13T07:21:58.408Z,98043.66
2022-09-13T07:24:29.861Z,98041.13
2022-09-13T07:26:59.390Z,98035.81
2022-09-13T07:29:28.917Z,98042.00
2022-09-13T07:31:59.344Z,98054.81
2022-09-13T07:34:28.599Z,98052.03
2022-09-13T07:36:57.604Z,98058.63
2022-09-13T07:39:27.153Z,98054.25
2022-09-13T07:41:56.197Z,98052.00
2022-09-13T07:44:25.675Z,98054.66
2022-09-13T07:46:54.908Z,98057.59
2022-09-13T07:49:25.656Z,98048.50
2022-09-13T07:51:54.811Z,98050.09
2022-09-13T07:54:23.874Z,98056.44
2022-09-13T07:56:52.955Z,98063.09
2022-09-13T07:59:23.428Z,98065.47
2022-09-13T08:01:54.074Z,98067.50
2022-09-13T08:04:26.780Z,98074.00
2022-09-13T08:06:56.108Z,98071.13
2022-09-13T08:09:26.529Z,98073.81
2022-09-13T08:11:55.556Z,98069.69
2022-09-13T08:14:25.284Z,98070.94
2022-09-13T08:16:57.803Z,98067.44
2022-09-13T08:19:28.584Z,98063.25
2022-09-13T08:21:57.598Z,98051.47
2022-09-13T08:24:26.821Z,98057.13
2022-09-13T08:26:57.020Z,98060.78
2022-09-13T08:29:26.497Z,98055.03
2022-09-13T08:31:55.504Z,98053.16
2022-09-13T08:34:24.756Z,98034.81
2022-09-13T08:36:58.257Z,98042.38
2022-09-13T08:39:29.259Z,98046.84
2022-09-13T08:42:18.426Z,98033.72
2022-09-13T08:44:49.453Z,98033.69
2022-09-13T08:47:41.789Z,98028.88
2022-09-13T08:50:18.862Z,98019.72
2022-09-13T08:53:03.086Z,98022.44
2022-09-13T08:56:04.542Z,98025.25
2022-09-13T08:58:52.820Z,98029.59
2022-09-13T09:01:44.746Z,98029.91
2022-09-13T09:04:39.161Z,98032.38
2022-09-13T09:07:16.090Z,98032.56
2022-09-13T09:09:53.454Z,98032.34
2022-09-13T09:12:29.483Z,98033.94
2022-09-13T09:15:06.993Z,98031.97
2022-09-13T09:17:50.399Z,98027.66
2022-09-13T09:20:32.039Z,98021.91
2022-09-13T09:23:07.335Z,98020.72
2022-09-13T09:25:37.898Z,98008.06
2022-09-13T09:28:14.648Z,98016.88
2022-09-13T09:30:54.848Z,98010.09
2022-09-13T09:33:51.138Z,98012.56
2022-09-13T09:36:34.508Z,98018.28
2022-09-13T09:39:05.814Z,98017.50
2022-09-13T09:41:38.508Z,98010.00
2022-09-13T09:44:19.840Z,98012.69
2022-09-13T09:46:53.174Z,98006.13
2022-09-13T09:49:50.944Z,98009.28
2022-09-13T09:52:28.373Z,98004.81
2022-09-13T09:55:00.609Z,98004.97
2022-09-13T09:57:53.688Z,98003.28
2022-09-13T10:00:26.089Z,98001.38
2022-09-13T10:02:59.785Z,97997.66
2022-09-13T10:05:30.405Z,98000.50
2022-09-13T10:08:03.973Z,97990.69
2022-09-13T10:10:42.713Z,97989.59
2022-09-13T10:13:19.926Z,97992.72
2022-09-13T10:15:58.218Z,97991.25
2022-09-13T10:18:45.428Z,97985.31
2022-09-13T10:21:26.408Z,97988.09
2022-09-13T10:24:22.652Z,97996.44
2022-09-13T10:26:52.105Z,97998.50
2022-09-13T10:29:21.240Z,97985.44
2022-09-13T10:31:53.780Z,97986.75
2022-09-13T10:34:28.448Z,97984.28
2022-09-13T10:37:01.371Z,97983.72
2022-09-13T10:39:37.008Z,97974.22
2022-09-13T10:42:09.589Z,97980.59
2022-09-13T10:44:42.962Z,97985.66
2022-09-13T10:47:19.572Z,97969.00
2022-09-13T10:49:55.695Z,97964.84
2022-09-13T10:52:32.616Z,97965.94
2022-09-13T10:55:34.169Z,97957.03
2022-09-13T10:58:21.455Z,97956.00
2022-09-13T11:01:42.199Z,97949.16
2022-09-13T11:04:46.519Z,97947.13
2022-09-13T11:07:58.930Z,97942.72
2022-09-13T11:10:36.516Z,97945.69
2022-09-13T11:13:23.266Z,97940.50
2022-09-13T11:16:05.062Z,97946.75
2022-09-13T11:19:09.771Z,97950.69
2022-09-13T11:21:55.521Z,97938.59
2022-09-13T11:25:04.678Z,97948.13
2022-09-13T11:27:46.209Z,97932.91
2022-09-13T11:30:19.608Z,97923.63
2022-09-13T11:33:24.177Z,97927.25
2022-09-13T11:36:32.563Z,97929.59
2022-09-13T11:39:14.638Z,97923.31
2022-09-13T11:41:54.921Z,97931.13
2022-09-13T11:45:03.053Z,97927.69
2022-09-13T11:47:48.617Z,97916.28
2022-09-13T11:50:30.953Z,97924.63
2022-09-13T11:53:27.050Z,97921.63
2022-09-13T11:56:03.557Z,97918.38
2022-09-13T11:58:43.958Z,97919.84
2022-09-13T12:01:22.989Z,97917.81
2022-09-13T12:04:01.096Z,97919.44
2022-09-13T12:06:35.543Z,97925.44
2022-09-13T12:09:13.867Z,97914.22
2022-09-13T12:11:48.634Z,97915.22
2022-09-13T12:14:22.773Z,97918.13
2022-09-13T12:16:57.260Z,97907.25
2022-09-13T12:19:35.090Z,97905.97
2022-09-13T12:22:12.568Z,97909.03
2022-09-13T12:24:46.979Z,97902.88
2022-09-13T12:27:30.312Z,97906.38
2022-09-13T12:30:08.415Z,97896.53
2022-09-13T12:32:40.351Z,97888.97
2022-09-13T12:35:17.819Z,97899.97
2022-09-13T12:38:31.657Z,97895.00
2022-09-13T12:41:36.956Z,97901.63
2022-09-13T12:44:54.135Z,97891.47
2022-09-13T12:47:58.756Z,97894.28
2022-09-13T12:51:07.248Z,97900.16
2022-09-13T12:54:15.971Z,97891.03
2022-09-13T12:57:01.153Z,97884.59
2022-09-13T12:59:51.966Z,97883.81
2022-09-13T13:02:31.165Z,97888.91
2022-09-13T13:05:05.733Z,97887.47
2022-09-13T13:07:38.224Z,97886.50
2022-09-13T13:10:23.122Z,97895.03
2022-09-13T13:12:52.500Z,97889.38
2022-09-13T13:16:01.291Z,97883.50
2022-09-13T13:18:44.333Z,97882.59
2022-09-13T13:21:40.601Z,97892.28
2022-09-13T13:24:47.511Z,97886.34
2022-09-13T13:27:48.606Z,97883.97
2022-09-13T13:30:52.892Z,97884.72
2022-09-13T13:33:27.208Z,97885.94
2022-09-13T13:35:56.557Z,97878.06
2022-09-13T13:38:51.796Z,97882.53
2022-09-13T13:41:55.395Z,97878.78
2022-09-13T13:45:28.276Z,97881.63
2022-09-13T13:48:16.289Z,97877.13
2022-09-13T13:51:25.775Z,97875.31
2022-09-13T13:54:05.720Z,97872.88
2022-09-13T13:56:48.937Z,97869.56
2022-09-13T13:59:28.178Z,97876.25
2022-09-13T14:02:01.846Z,97869.22
2022-09-13T14:05:10.090Z,97866.84
2022-09-13T14:08:03.818Z,97857.09
2022-09-13T14:10:46.562Z,97862.06
2022-09-13T14:13:37.448Z,97849.13
2022-09-13T14:16:17.521Z,97853.34
2022-09-13T14:19:24.211Z,97851.63
2022-09-13T14:22:22.788Z,97848.38
2022-09-13T14:24:54.193Z,97849.91
2022-09-13T14:27:30.627Z,97847.81
2022-09-13T14:30:03.373Z,97860.69
2022-09-13T14:32:45.811Z,97862.00
2022-09-13T14:35:27.725Z,97859.59
2022-09-13T14:37:57.476Z,97853.19
2022-09-13T14:40:28.816Z,97847.69
2022-09-13T14:42:59.493Z,97843.13
2022-09-13T14:45:35.689Z,97836.63
2022-09-13T14:48:10.816Z,97828.25
2022-09-13T14:50:47.170Z,97832.50
2022-09-13T14:53:19.889Z,97825.13
2022-09-13T14:55:55.175Z,97830.56
2022-09-13T14:58:29.810Z,97839.03
2022-09-13T15:01:02.046Z,97852.84
2022-09-13T15:03:31.648Z,97851.25
2022-09-13T15:06:03.460Z,97844.94
2022-09-13T15:08:47.818Z,97854.59
2022-09-13T15:11:29.395Z,97851.81
2022-09-13T15:14:25.755Z,97856.75
2022-09-13T15:17:00.796Z,97856.53
2022-09-13T15:19:36.465Z,97847.47
2022-09-13T15:22:21.990Z,97841.59
2022-09-13T15:24:54.904Z,97825.97
2022-09-13T15:27:28.497Z,97813.41
2022-09-13T15:30:03.010Z,97806.19
2022-09-13T15:32:35.901Z,97814.81
2022-09-13T15:35:05.414Z,97809.88
2022-09-13T15:37:38.433Z,97808.31
2022-09-13T15:40:17.714Z,97804.38
2022-09-13T15:42:49.455Z,97802.19
2022-09-13T15:45:22.381Z,97796.31
2022-09-13T15:47:53.741Z,97793.84
2022-09-13T15:50:29.198Z,97788.41
2022-09-13T15:53:00.078Z,97783.63
2022-09-13T15:55:29.994Z,97782.84
2022-09-13T15:57:59.065Z,97784.88
2022-09-13T16:00:29.787Z,97781.84
2022-09-13T16:03:00.085Z,97774.38
2022-09-13T16:05:29.303Z,97776.53
2022-09-13T16:07:59.352Z,97771.06
2022-09-13T16:10:31.550Z,97772.63
2022-09-13T16:13:00.625Z,97770.81
2022-09-13T16:15:31.634Z,97780.16
2022-09-13T16:18:00.698Z,97782.19
2022-09-13T16:20:30.198Z,97794.34
2022-09-13T16:22:59.465Z,97789.28
2022-09-13T16:25:28.548Z,97794.03
2022-09-13T16:27:58.394Z,97793.94
2022-09-13T16:30:30.560Z,97784.22
2022-09-13T16:33:01.687Z,97778.38
2022-09-13T16:35:33.072Z,97774.06
2022-09-13T16:38:02.292Z,97780.44
2022-09-13T16:40:31.638Z,97780.25
2022-09-13T16:43:06.046Z,97767.91
2022-09-13T16:45:35.862Z,97767.38
2022-09-13T16:48:06.340Z,97754.44
2022-09-13T16:50:36.107Z,97754.13
2022-09-13T16:53:05.177Z,97755.84
2022-09-13T16:55:34.417Z,97751.03
2022-09-13T16:58:03.575Z,97754.28
2022-09-13T17:00:33.013Z,97754.44
2022-09-13T17:03:02.423Z,97759.31
2022-09-13T17:05:33.075Z,97752.72
2022-09-13T17:08:02.517Z,97742.59
2022-09-13T17:10:31.921Z,97749.56
2022-09-13T17:13:01.084Z,97748.50
2022-09-13T17:15:30.760Z,97748.09
2022-09-13T17:18:00.025Z,97741.38
2022-09-13T17:20:29.228Z,97742.38
2022-09-13T17:23:00.479Z,97743.38
2022-09-13T17:25:29.724Z,97753.69
2022-09-13T17:27:59.242Z,97754.56
2022-09-13T17:30:28.555Z,97753.38
2022-09-13T17:33:00.014Z,97756.34
2022-09-13T17:35:30.230Z,97752.13
2022-09-13T17:38:01.775Z,97764.13
2022-09-13T17:40:32.965Z,97757.59
2022-09-13T17:43:02.743Z,97753.16
2022-09-13T17:45:31.812Z,97754.38
2022-09-13T17:48:00.852Z,97748.38
2022-09-13T17:50:30.101Z,97755.34
2022-09-13T17:53:00.726Z,97746.66
2022-09-13T17:55:29.946Z,97746.25
2022-09-13T17:57:59.093Z,97751.22
2022-09-13T18:00:28.913Z,97755.00
2022-09-13T18:02:58.251Z,97760.72
2022-09-13T18:05:27.690Z,97755.56
2022-09-13T18:07:57.405Z,97756.25
2022-09-13T18:10:49.214Z,97759.88
2022-09-13T18:13:17.473Z,97762.16
2022-09-13T18:15:46.579Z,97769.19
2022-09-13T18:18:15.720Z,97766.88
2022-09-13T18:20:47.519Z,97781.22
2022-09-13T18:23:16.729Z,97776.22
2022-09-13T18:26:02.607Z,97778.28
2022-09-13T18:28:34.459Z,97777.69
2022-09-13T18:31:07.118Z,97769.34
2022-09-13T18:33:36.851Z,97774.63
2022-09-13T18:36:10.008Z,97778.88
2022-09-13T18:38:41.953Z,97789.66
2022-09-13T18:41:14.940Z,97782.19
2022-09-13T18:43:48.845Z,97788.06
2022-09-13T18:46:23.829Z,97787.47
2022-09-13T18:48:54.736Z,97783.09
2022-09-13T18:51:27.251Z,97774.69
2022-09-13T18:53:57.109Z,97770.50
2022-09-13T18:56:28.843Z,97767.19
2022-09-13T18:59:00.377Z,97771.16
2022-09-13T19:01:32.833Z,97785.28
2022-09-13T19:04:07.500Z,97786.22
2022-09-13T19:06:45.678Z,97773.25
2022-09-13T19:09:16.385Z,97780.53
2022-09-13T19:11:49.655Z,97781.31
2022-09-13T19:14:21.788Z,97775.81
2022-09-13T19:16:52.348Z,97771.69
2022-09-13T19:19:25.463Z,97777.84
2022-09-13T19:21:58.192Z,97774.38
2022-09-13T19:24:27.632Z,97766.75
2022-09-13T19:26:58.338Z,97775.75
2022-09-13T19:29:27.773Z,97766.91
2022-09-13T19:31:57.433Z,97750.44
2022-09-13T19:34:27.050Z,97755.91
2022-09-13T19:37:00.420Z,97743.78
2022-09-13T19:39:30.758Z,97749.88
2022-09-13T19:42:02.406Z,97745.38
2022-09-13T19:44:31.649Z,97746.53
2022-09-13T19:49:56.756Z,97753.78
2022-09-13T19:52:26.914Z,97750.28
2022-09-13T19:54:58.989Z,97752.22
2022-09-13T19:57:29.588Z,97754.53
2022-09-13T19:59:58.788Z,97749.06
2022-09-13T20:02:27.939Z,97757.44
2022-09-13T20:04:57.018Z,97758.78
2022-09-13T20:07:26.126Z,97753.16
2022-09-13T20:09:55.151Z,97752.50
2022-09-13T20:12:24.221Z,97757.28
2022-09-13T20:14:54.796Z,97752.59
2022-09-13T20:17:25.623Z,97741.75
2022-09-13T20:19:55.039Z,97746.72
2022-09-13T20:22:25.616Z,97742.78
2022-09-13T20:24:54.841Z,97740.50
2022-09-13T20:27:26.849Z,97731.16
2022-09-13T20:30:00.981Z,97729.94
2022-09-13T20:32:30.056Z,97731.34
2022-09-13T20:34:59.323Z,97733.09
2022-09-13T20:37:28.494Z,97733.56
2022-09-13T20:39:57.534Z,97735.25
2022-09-13T20:42:26.712Z,97734.56
2022-09-13T20:44:55.812Z,97736.88
2022-09-13T20:47:26.352Z,97721.75
2022-09-13T20:49:55.527Z,97723.38
2022-09-13T20:52:24.814Z,97719.59
2022-09-13T20:54:53.847Z,97715.78
2022-09-13T20:57:22.985Z,97709.19
2022-09-13T20:59:52.701Z,97708.84
2022-09-13T21:02:22.324Z,97701.34
2022-09-13T21:04:52.796Z,97706.75
2022-09-13T21:07:39.297Z,97709.28
2022-09-13T21:10:09.625Z,97703.28
2022-09-13T21:12:38.932Z,97698.88
2022-09-13T21:15:09.399Z,97694.75
2022-09-13T21:17:38.565Z,97706.28
2022-09-13T21:20:10.187Z,97706.50
2022-09-13T21:22:39.504Z,97700.50
2022-09-13T21:25:09.936Z,97698.56
2022-09-13T21:27:38.952Z,97699.56
2022-09-13T21:30:09.218Z,97704.78
2022-09-13T21:32:38.302Z,97711.47
2022-09-13T21:35:10.393Z,97717.31
2022-09-13T21:37:39.436Z,97704.56
2022-09-13T21:40:10.251Z,97705.22
2022-09-13T21:42:39.389Z,97704.56
2022-09-13T21:45:10.220Z,97695.28
2022-09-13T21:47:39.373Z,97707.44
2022-09-13T21:50:11.195Z,97683.78
2022-09-13T21:52:40.650Z,97694.03
2022-09-13T21:55:10.496Z,97692.22
2022-09-13T21:57:39.557Z,97687.81
2022-09-13T22:00:12.723Z,97681.03
2022-09-13T22:02:43.780Z,97679.16
2022-09-13T22:05:14.785Z,97670.63
2022-09-13T22:07:43.903Z,97669.38
2022-09-13T22:10:13.081Z,97667.50
2022-09-13T22:12:42.130Z,97662.28
2022-09-13T22:15:12.317Z,97662.09
2022-09-13T22:17:41.481Z,97665.28
2022-09-13T22:20:11.325Z,97653.59
2022-09-13T22:22:41.799Z,97664.94
2022-09-13T22:25:11.255Z,97669.97
2022-09-13T22:27:40.373Z,97667.78
2022-09-13T22:30:10.977Z,97667.13
2022-09-13T22:32:40.190Z,97660.19
2022-09-13T22:35:10.781Z,97665.38
2022-09-13T22:37:41.213Z,97656.28
2022-09-13T22:40:12.189Z,97654.41
2022-09-13T22:42:41.303Z,97654.88
2022-09-13T22:45:11.298Z,97642.56
2022-09-13T22:47:40.298Z,97654.06
2022-09-13T22:50:10.443Z,97648.22
2022-09-13T22:52:39.490Z,97646.50
2022-09-13T22:55:10.646Z,97646.38
2022-09-13T22:57:39.668Z,97649.19
2022-09-13T23:00:11.605Z,97646.38
2022-09-13T23:02:45.169Z,97649.97
2022-09-13T23:05:17.042Z,97647.97
2022-09-13T23:07:46.106Z,97633.31
2022-09-13T23:10:16.773Z,97638.03
2022-09-13T23:12:46.340Z,97637.25
2022-09-13T23:15:15.528Z,97631.88
2022-09-13T23:17:44.617Z,97637.56
2022-09-13T23:20:13.820Z,97634.34
2022-09-13T23:22:42.832Z,97633.09
2022-09-13T23:25:11.901Z,97632.81
2022-09-13T23:27:42.305Z,97632.19
2022-09-13T23:30:12.793Z,97629.84
2022-09-13T23:32:41.920Z,97625.56
2022-09-13T23:35:12.085Z,97622.88
2022-09-13T23:37:41.225Z,97624.94
2022-09-13T23:40:11.419Z,97628.41
2022-09-13T23:42:41.968Z,97615.84
2022-09-13T23:45:12.825Z,97621.19
2022-09-13T23:47:41.895Z,97622.13
2022-09-13T23:50:11.876Z,97608.28
2022-09-13T23:52:41.065Z,97611.41
2022-09-13T23:55:14.284Z,97601.03
2022-09-13T23:57:44.829Z,97602.59
